Terminal Aerodrome Forecast
Issued by NWS Corpus Christi, TX

Home | Current Version | Previous Version | Text Only | Print | Product List | Glossary On
Versions: 1 2 3 4 5 6 7 8 9 10 11 12 13 14
703
FTUS44 KCRP 220540
TAFCRP
TAF
KCRP 220540Z 2206/2306 13007KT P6SM SCT012 BKN060
      TEMPO 2209/2213 BKN012 OVC060
     FM221500 13006KT P6SM SCT020 BKN030
     FM221700 13009KT P6SM VCTS SCT025CB BKN035
     FM222000 13014G20KT P6SM SCT035
     FM230300 14010KT P6SM BKN025 OVC250=

USA.gov is the U.S. government's official web portal to all federal, state and local government web resources and services.